sensor_id;sensor_type;location;lat;lon;timestamp;P1;durP1;ratioP1;P2;durP2;ratioP2
69878;SDS011;57161;43.136;24.706;2024-02-26T00:01:00;29.85;;;17.80;;
69878;SDS011;57161;43.136;24.706;2024-02-26T00:03:27;53.47;;;32.92;;
69878;SDS011;57161;43.136;24.706;2024-02-26T00:05:52;33.42;;;19.67;;
69878;SDS011;57161;43.136;24.706;2024-02-26T00:08:18;28.08;;;17.95;;
69878;SDS011;57161;43.136;24.706;2024-02-26T00:10:43;34.13;;;20.10;;
69878;SDS011;57161;43.136;24.706;2024-02-26T00:13:09;37.95;;;21.55;;
69878;SDS011;57161;43.136;24.706;2024-02-26T00:15:34;115.10;;;61.67;;
69878;SDS011;57161;43.136;24.706;2024-02-26T00:18:00;80.28;;;46.40;;
69878;SDS011;57161;43.136;24.706;2024-02-26T00:20:26;34.47;;;19.73;;
69878;SDS011;57161;43.136;24.706;2024-02-26T00:22:51;25.70;;;17.20;;
69878;SDS011;57161;43.136;24.706;2024-02-26T00:25:17;30.48;;;19.95;;
69878;SDS011;57161;43.136;24.706;2024-02-26T00:27:43;39.10;;;23.05;;
69878;SDS011;57161;43.136;24.706;2024-02-26T00:30:09;28.25;;;18.20;;
69878;SDS011;57161;43.136;24.706;2024-02-26T00:32:35;27.92;;;16.73;;
69878;SDS011;57161;43.136;24.706;2024-02-26T00:35:00;25.67;;;16.65;;
69878;SDS011;57161;43.136;24.706;2024-02-26T00:37:26;25.48;;;15.45;;
69878;SDS011;57161;43.136;24.706;2024-02-26T00:39:52;26.73;;;17.80;;
69878;SDS011;57161;43.136;24.706;2024-02-26T00:42:19;54.63;;;34.03;;
69878;SDS011;57161;43.136;24.706;2024-02-26T00:44:44;41.33;;;24.63;;
69878;SDS011;57161;43.136;24.706;2024-02-26T00:47:10;43.92;;;28.27;;
69878;SDS011;57161;43.136;24.706;2024-02-26T00:49:36;31.17;;;19.73;;
69878;SDS011;57161;43.136;24.706;2024-02-26T00:52:02;23.65;;;13.75;;
69878;SDS011;57161;43.136;24.706;2024-02-26T00:54:28;22.50;;;12.27;;
69878;SDS011;57161;43.136;24.706;2024-02-26T00:56:53;13.00;;;9.07;;
69878;SDS011;57161;43.136;24.706;2024-02-26T00:59:19;22.15;;;14.13;;
69878;SDS011;57161;43.136;24.706;2024-02-26T01:01:44;25.52;;;15.48;;
69878;SDS011;57161;43.136;24.706;2024-02-26T01:04:10;24.23;;;15.90;;
69878;SDS011;57161;43.136;24.706;2024-02-26T01:06:36;24.13;;;16.08;;
69878;SDS011;57161;43.136;24.706;2024-02-26T01:09:02;25.38;;;15.75;;
69878;SDS011;57161;43.136;24.706;2024-02-26T01:11:28;25.20;;;13.73;;
69878;SDS011;57161;43.136;24.706;2024-02-26T01:13:53;31.35;;;20.10;;
69878;SDS011;57161;43.136;24.706;2024-02-26T01:16:22;26.02;;;16.13;;
69878;SDS011;57161;43.136;24.706;2024-02-26T01:18:48;31.50;;;20.15;;
69878;SDS011;57161;43.136;24.706;2024-02-26T01:21:13;26.10;;;18.10;;
69878;SDS011;57161;43.136;24.706;2024-02-26T01:23:39;26.73;;;17.17;;
69878;SDS011;57161;43.136;24.706;2024-02-26T01:26:05;30.73;;;19.60;;
69878;SDS011;57161;43.136;24.706;2024-02-26T01:28:31;27.25;;;16.83;;
69878;SDS011;57161;43.136;24.706;2024-02-26T01:30:56;25.10;;;16.58;;
69878;SDS011;57161;43.136;24.706;2024-02-26T01:33:22;30.30;;;16.98;;
69878;SDS011;57161;43.136;24.706;2024-02-26T01:35:47;29.67;;;16.50;;
69878;SDS011;57161;43.136;24.706;2024-02-26T01:38:13;34.92;;;23.65;;
69878;SDS011;57161;43.136;24.706;2024-02-26T01:40:38;25.73;;;16.35;;
69878;SDS011;57161;43.136;24.706;2024-02-26T01:43:04;24.13;;;15.48;;
69878;SDS011;57161;43.136;24.706;2024-02-26T01:45:29;19.58;;;10.77;;
69878;SDS011;57161;43.136;24.706;2024-02-26T01:47:55;13.77;;;8.30;;
69878;SDS011;57161;43.136;24.706;2024-02-26T01:50:21;11.93;;;8.23;;
69878;SDS011;57161;43.136;24.706;2024-02-26T01:52:49;11.32;;;7.32;;
69878;SDS011;57161;43.136;24.706;2024-02-26T01:55:15;12.35;;;8.50;;
69878;SDS011;57161;43.136;24.706;2024-02-26T01:57:42;11.75;;;8.98;;
69878;SDS011;57161;43.136;24.706;2024-02-26T02:00:14;14.13;;;10.15;;
69878;SDS011;57161;43.136;24.706;2024-02-26T02:02:41;15.18;;;8.20;;
69878;SDS011;57161;43.136;24.706;2024-02-26T02:05:08;15.07;;;9.60;;
69878;SDS011;57161;43.136;24.706;2024-02-26T02:07:36;19.17;;;11.32;;
69878;SDS011;57161;43.136;24.706;2024-02-26T02:10:02;13.82;;;8.50;;
69878;SDS011;57161;43.136;24.706;2024-02-26T02:12:28;14.50;;;9.80;;
69878;SDS011;57161;43.136;24.706;2024-02-26T02:14:54;14.02;;;9.10;;
69878;SDS011;57161;43.136;24.706;2024-02-26T02:17:20;16.80;;;10.18;;
69878;SDS011;57161;43.136;24.706;2024-02-26T02:19:45;13.35;;;8.32;;
69878;SDS011;57161;43.136;24.706;2024-02-26T02:22:11;11.75;;;7.80;;
69878;SDS011;57161;43.136;24.706;2024-02-26T02:24:36;12.82;;;8.60;;
69878;SDS011;57161;43.136;24.706;2024-02-26T02:27:02;12.32;;;7.93;;
69878;SDS011;57161;43.136;24.706;2024-02-26T02:29:28;16.08;;;10.15;;
69878;SDS011;57161;43.136;24.706;2024-02-26T02:31:54;11.85;;;7.80;;
69878;SDS011;57161;43.136;24.706;2024-02-26T02:34:21;15.07;;;10.02;;
69878;SDS011;57161;43.136;24.706;2024-02-26T02:36:53;15.50;;;9.18;;
69878;SDS011;57161;43.136;24.706;2024-02-26T02:39:19;12.00;;;8.45;;
69878;SDS011;57161;43.136;24.706;2024-02-26T02:41:46;12.88;;;9.43;;
69878;SDS011;57161;43.136;24.706;2024-02-26T02:44:11;13.35;;;9.20;;
69878;SDS011;57161;43.136;24.706;2024-02-26T02:46:37;19.13;;;9.68;;
69878;SDS011;57161;43.136;24.706;2024-02-26T02:49:03;15.63;;;10.00;;
69878;SDS011;57161;43.136;24.706;2024-02-26T02:51:29;21.42;;;13.55;;
69878;SDS011;57161;43.136;24.706;2024-02-26T02:53:54;22.90;;;13.63;;
69878;SDS011;57161;43.136;24.706;2024-02-26T02:56:20;28.88;;;18.90;;
69878;SDS011;57161;43.136;24.706;2024-02-26T02:58:45;30.63;;;19.23;;
69878;SDS011;57161;43.136;24.706;2024-02-26T03:01:12;16.88;;;12.38;;
69878;SDS011;57161;43.136;24.706;2024-02-26T03:03:38;12.52;;;8.93;;
69878;SDS011;57161;43.136;24.706;2024-02-26T03:06:04;16.98;;;9.30;;
69878;SDS011;57161;43.136;24.706;2024-02-26T03:08:30;29.15;;;18.45;;
69878;SDS011;57161;43.136;24.706;2024-02-26T03:10:55;11.02;;;7.97;;
69878;SDS011;57161;43.136;24.706;2024-02-26T03:13:23;15.65;;;9.35;;
69878;SDS011;57161;43.136;24.706;2024-02-26T03:15:48;17.83;;;10.52;;
69878;SDS011;57161;43.136;24.706;2024-02-26T03:18:14;15.68;;;10.52;;
69878;SDS011;57161;43.136;24.706;2024-02-26T03:20:39;17.40;;;9.82;;
69878;SDS011;57161;43.136;24.706;2024-02-26T03:23:05;18.67;;;10.25;;
69878;SDS011;57161;43.136;24.706;2024-02-26T03:25:30;19.02;;;11.60;;
69878;SDS011;57161;43.136;24.706;2024-02-26T03:27:56;30.42;;;16.25;;
69878;SDS011;57161;43.136;24.706;2024-02-26T03:30:21;20.73;;;12.60;;
69878;SDS011;57161;43.136;24.706;2024-02-26T03:32:47;15.93;;;11.38;;
69878;SDS011;57161;43.136;24.706;2024-02-26T03:35:12;17.42;;;10.30;;
69878;SDS011;57161;43.136;24.706;2024-02-26T03:37:38;22.08;;;13.43;;
69878;SDS011;57161;43.136;24.706;2024-02-26T03:40:04;21.15;;;11.18;;
69878;SDS011;57161;43.136;24.706;2024-02-26T03:42:30;28.10;;;16.95;;
69878;SDS011;57161;43.136;24.706;2024-02-26T03:44:55;35.80;;;22.98;;
69878;SDS011;57161;43.136;24.706;2024-02-26T03:47:21;19.20;;;13.45;;
69878;SDS011;57161;43.136;24.706;2024-02-26T03:49:46;19.58;;;10.77;;
69878;SDS011;57161;43.136;24.706;2024-02-26T03:52:12;23.30;;;13.57;;
69878;SDS011;57161;43.136;24.706;2024-02-26T03:54:38;16.65;;;10.95;;
69878;SDS011;57161;43.136;24.706;2024-02-26T03:57:03;15.80;;;9.80;;
69878;SDS011;57161;43.136;24.706;2024-02-26T03:59:29;16.63;;;9.70;;
69878;SDS011;57161;43.136;24.706;2024-02-26T04:01:54;16.60;;;9.48;;
69878;SDS011;57161;43.136;24.706;2024-02-26T04:04:20;17.77;;;8.95;;
69878;SDS011;57161;43.136;24.706;2024-02-26T04:06:46;17.88;;;10.57;;
69878;SDS011;57161;43.136;24.706;2024-02-26T04:09:15;15.60;;;10.40;;
69878;SDS011;57161;43.136;24.706;2024-02-26T04:11:40;16.95;;;9.27;;
69878;SDS011;57161;43.136;24.706;2024-02-26T04:14:08;17.45;;;10.27;;
69878;SDS011;57161;43.136;24.706;2024-02-26T04:16:34;16.40;;;10.27;;
69878;SDS011;57161;43.136;24.706;2024-02-26T04:19:00;13.73;;;9.27;;
69878;SDS011;57161;43.136;24.706;2024-02-26T04:21:26;15.60;;;9.77;;
69878;SDS011;57161;43.136;24.706;2024-02-26T04:23:52;15.30;;;9.40;;
69878;SDS011;57161;43.136;24.706;2024-02-26T04:26:20;14.13;;;9.32;;
69878;SDS011;57161;43.136;24.706;2024-02-26T04:28:46;13.63;;;9.55;;
69878;SDS011;57161;43.136;24.706;2024-02-26T04:31:12;21.08;;;14.30;;
69878;SDS011;57161;43.136;24.706;2024-02-26T04:33:37;28.30;;;16.83;;
69878;SDS011;57161;43.136;24.706;2024-02-26T04:36:03;16.15;;;9.93;;
69878;SDS011;57161;43.136;24.706;2024-02-26T04:38:28;12.90;;;8.77;;
69878;SDS011;57161;43.136;24.706;2024-02-26T04:40:54;12.50;;;8.68;;
69878;SDS011;57161;43.136;24.706;2024-02-26T04:43:19;17.10;;;9.30;;
69878;SDS011;57161;43.136;24.706;2024-02-26T04:45:45;13.32;;;9.27;;
69878;SDS011;57161;43.136;24.706;2024-02-26T04:48:10;13.00;;;8.82;;
69878;SDS011;57161;43.136;24.706;2024-02-26T04:50:36;16.98;;;8.95;;
69878;SDS011;57161;43.136;24.706;2024-02-26T04:53:01;13.80;;;8.57;;
69878;SDS011;57161;43.136;24.706;2024-02-26T04:55:27;14.10;;;7.95;;
69878;SDS011;57161;43.136;24.706;2024-02-26T04:57:52;23.38;;;13.77;;
69878;SDS011;57161;43.136;24.706;2024-02-26T05:00:18;22.90;;;15.07;;
69878;SDS011;57161;43.136;24.706;2024-02-26T05:02:43;22.20;;;14.45;;
69878;SDS011;57161;43.136;24.706;2024-02-26T05:05:09;25.92;;;15.45;;
69878;SDS011;57161;43.136;24.706;2024-02-26T05:07:39;25.80;;;16.17;;
69878;SDS011;57161;43.136;24.706;2024-02-26T05:12:31;31.17;;;19.52;;
69878;SDS011;57161;43.136;24.706;2024-02-26T05:15:00;39.22;;;22.77;;
69878;SDS011;57161;43.136;24.706;2024-02-26T05:17:25;32.20;;;19.73;;
69878;SDS011;57161;43.136;24.706;2024-02-26T05:19:51;33.42;;;18.80;;
69878;SDS011;57161;43.136;24.706;2024-02-26T05:22:16;45.00;;;29.38;;
69878;SDS011;57161;43.136;24.706;2024-02-26T05:24:42;37.40;;;23.80;;
69878;SDS011;57161;43.136;24.706;2024-02-26T05:27:08;34.20;;;19.50;;
69878;SDS011;57161;43.136;24.706;2024-02-26T05:29:33;38.13;;;22.05;;
69878;SDS011;57161;43.136;24.706;2024-02-26T05:31:59;43.05;;;24.73;;
69878;SDS011;57161;43.136;24.706;2024-02-26T05:34:24;34.58;;;23.25;;
69878;SDS011;57161;43.136;24.706;2024-02-26T05:36:50;42.70;;;27.10;;
69878;SDS011;57161;43.136;24.706;2024-02-26T05:39:15;43.97;;;23.80;;
69878;SDS011;57161;43.136;24.706;2024-02-26T05:41:41;30.13;;;16.73;;
69878;SDS011;57161;43.136;24.706;2024-02-26T05:44:08;35.42;;;22.42;;
69878;SDS011;57161;43.136;24.706;2024-02-26T05:46:35;35.17;;;20.38;;
69878;SDS011;57161;43.136;24.706;2024-02-26T05:49:01;26.17;;;18.58;;
69878;SDS011;57161;43.136;24.706;2024-02-26T05:51:26;31.60;;;19.70;;
69878;SDS011;57161;43.136;24.706;2024-02-26T05:53:52;33.72;;;20.75;;
69878;SDS011;57161;43.136;24.706;2024-02-26T05:56:21;36.33;;;20.15;;
69878;SDS011;57161;43.136;24.706;2024-02-26T05:58:47;33.88;;;18.90;;
69878;SDS011;57161;43.136;24.706;2024-02-26T06:01:13;30.80;;;20.13;;
69878;SDS011;57161;43.136;24.706;2024-02-26T06:03:40;31.42;;;18.50;;
69878;SDS011;57161;43.136;24.706;2024-02-26T06:06:06;35.33;;;19.38;;
69878;SDS011;57161;43.136;24.706;2024-02-26T06:08:31;46.95;;;24.85;;
69878;SDS011;57161;43.136;24.706;2024-02-26T06:10:57;49.05;;;29.73;;
69878;SDS011;57161;43.136;24.706;2024-02-26T06:13:22;46.60;;;26.98;;
69878;SDS011;57161;43.136;24.706;2024-02-26T06:15:48;45.95;;;27.27;;
69878;SDS011;57161;43.136;24.706;2024-02-26T06:18:13;46.47;;;28.48;;
69878;SDS011;57161;43.136;24.706;2024-02-26T06:20:39;50.60;;;26.83;;
69878;SDS011;57161;43.136;24.706;2024-02-26T06:23:04;43.70;;;26.23;;
69878;SDS011;57161;43.136;24.706;2024-02-26T06:25:30;30.45;;;17.38;;
69878;SDS011;57161;43.136;24.706;2024-02-26T06:27:55;29.92;;;15.95;;
69878;SDS011;57161;43.136;24.706;2024-02-26T06:30:21;28.30;;;16.55;;
69878;SDS011;57161;43.136;24.706;2024-02-26T06:32:46;32.85;;;18.88;;
69878;SDS011;57161;43.136;24.706;2024-02-26T06:35:12;26.85;;;14.88;;
69878;SDS011;57161;43.136;24.706;2024-02-26T06:37:37;26.20;;;14.82;;
69878;SDS011;57161;43.136;24.706;2024-02-26T06:40:03;40.55;;;17.85;;
69878;SDS011;57161;43.136;24.706;2024-02-26T06:42:29;47.80;;;21.85;;
69878;SDS011;57161;43.136;24.706;2024-02-26T06:44:55;31.70;;;17.70;;
69878;SDS011;57161;43.136;24.706;2024-02-26T06:47:21;35.67;;;20.75;;
69878;SDS011;57161;43.136;24.706;2024-02-26T06:49:46;38.92;;;21.35;;
69878;SDS011;57161;43.136;24.706;2024-02-26T06:52:12;52.83;;;29.48;;
69878;SDS011;57161;43.136;24.706;2024-02-26T06:57:07;43.67;;;25.05;;
69878;SDS011;57161;43.136;24.706;2024-02-26T06:59:32;47.28;;;28.23;;
69878;SDS011;57161;43.136;24.706;2024-02-26T07:01:58;40.00;;;23.58;;
69878;SDS011;57161;43.136;24.706;2024-02-26T07:04:23;61.67;;;34.40;;
69878;SDS011;57161;43.136;24.706;2024-02-26T07:06:48;45.70;;;21.13;;
69878;SDS011;57161;43.136;24.706;2024-02-26T07:09:14;26.95;;;16.55;;
69878;SDS011;57161;43.136;24.706;2024-02-26T07:11:40;72.80;;;38.50;;
69878;SDS011;57161;43.136;24.706;2024-02-26T07:14:11;55.78;;;27.98;;
69878;SDS011;57161;43.136;24.706;2024-02-26T07:16:37;163.27;;;68.50;;
69878;SDS011;57161;43.136;24.706;2024-02-26T07:19:03;71.38;;;32.63;;
69878;SDS011;57161;43.136;24.706;2024-02-26T07:21:28;68.47;;;37.63;;
69878;SDS011;57161;43.136;24.706;2024-02-26T07:23:54;62.05;;;32.10;;
69878;SDS011;57161;43.136;24.706;2024-02-26T07:26:19;59.08;;;31.02;;
69878;SDS011;57161;43.136;24.706;2024-02-26T07:28:45;56.40;;;31.58;;
69878;SDS011;57161;43.136;24.706;2024-02-26T07:31:11;56.50;;;32.60;;
69878;SDS011;57161;43.136;24.706;2024-02-26T07:33:37;67.10;;;29.10;;
69878;SDS011;57161;43.136;24.706;2024-02-26T07:36:03;43.28;;;21.95;;
69878;SDS011;57161;43.136;24.706;2024-02-26T07:38:28;35.65;;;16.58;;
69878;SDS011;57161;43.136;24.706;2024-02-26T07:40:54;23.30;;;13.95;;
69878;SDS011;57161;43.136;24.706;2024-02-26T07:43:19;26.08;;;14.02;;
69878;SDS011;57161;43.136;24.706;2024-02-26T07:45:45;46.78;;;22.20;;
69878;SDS011;57161;43.136;24.706;2024-02-26T07:48:10;39.83;;;21.08;;
69878;SDS011;57161;43.136;24.706;2024-02-26T07:50:37;86.47;;;35.78;;
69878;SDS011;57161;43.136;24.706;2024-02-26T07:53:03;52.13;;;29.05;;
69878;SDS011;57161;43.136;24.706;2024-02-26T07:55:28;85.00;;;47.83;;
69878;SDS011;57161;43.136;24.706;2024-02-26T07:57:54;69.78;;;42.20;;
69878;SDS011;57161;43.136;24.706;2024-02-26T08:00:19;58.08;;;29.08;;
69878;SDS011;57161;43.136;24.706;2024-02-26T08:02:45;71.03;;;36.75;;
69878;SDS011;57161;43.136;24.706;2024-02-26T08:05:12;151.68;;;58.58;;
69878;SDS011;57161;43.136;24.706;2024-02-26T08:07:37;120.20;;;49.90;;
69878;SDS011;57161;43.136;24.706;2024-02-26T08:10:03;75.40;;;36.53;;
69878;SDS011;57161;43.136;24.706;2024-02-26T08:12:29;102.35;;;53.55;;
69878;SDS011;57161;43.136;24.706;2024-02-26T08:14:54;76.47;;;37.10;;
69878;SDS011;57161;43.136;24.706;2024-02-26T08:17:20;32.40;;;17.27;;
69878;SDS011;57161;43.136;24.706;2024-02-26T08:19:46;29.80;;;17.05;;
69878;SDS011;57161;43.136;24.706;2024-02-26T08:22:11;27.42;;;15.57;;
69878;SDS011;57161;43.136;24.706;2024-02-26T08:24:41;41.17;;;25.35;;
69878;SDS011;57161;43.136;24.706;2024-02-26T08:27:07;44.00;;;27.75;;
69878;SDS011;57161;43.136;24.706;2024-02-26T08:29:33;61.05;;;33.78;;
69878;SDS011;57161;43.136;24.706;2024-02-26T08:31:58;52.10;;;29.02;;
69878;SDS011;57161;43.136;24.706;2024-02-26T08:34:24;37.45;;;23.80;;
69878;SDS011;57161;43.136;24.706;2024-02-26T08:36:50;35.63;;;20.60;;
69878;SDS011;57161;43.136;24.706;2024-02-26T08:39:16;34.42;;;20.00;;
69878;SDS011;57161;43.136;24.706;2024-02-26T08:41:42;42.45;;;25.23;;
69878;SDS011;57161;43.136;24.706;2024-02-26T08:44:11;45.60;;;26.63;;
69878;SDS011;57161;43.136;24.706;2024-02-26T08:46:36;54.42;;;27.17;;
69878;SDS011;57161;43.136;24.706;2024-02-26T08:49:02;44.60;;;23.88;;
69878;SDS011;57161;43.136;24.706;2024-02-26T08:51:28;45.72;;;22.80;;
69878;SDS011;57161;43.136;24.706;2024-02-26T08:53:53;46.17;;;23.35;;
69878;SDS011;57161;43.136;24.706;2024-02-26T08:56:19;27.20;;;16.10;;
69878;SDS011;57161;43.136;24.706;2024-02-26T08:58:46;27.63;;;14.45;;
69878;SDS011;57161;43.136;24.706;2024-02-26T09:01:14;21.75;;;11.75;;
69878;SDS011;57161;43.136;24.706;2024-02-26T09:03:40;20.05;;;10.85;;
69878;SDS011;57161;43.136;24.706;2024-02-26T09:06:06;21.25;;;9.98;;
69878;SDS011;57161;43.136;24.706;2024-02-26T09:08:33;24.50;;;9.93;;
69878;SDS011;57161;43.136;24.706;2024-02-26T09:10:58;18.63;;;9.98;;
69878;SDS011;57161;43.136;24.706;2024-02-26T09:13:24;21.20;;;9.43;;
69878;SDS011;57161;43.136;24.706;2024-02-26T09:15:49;18.90;;;9.05;;
69878;SDS011;57161;43.136;24.706;2024-02-26T09:18:15;16.30;;;9.25;;
69878;SDS011;57161;43.136;24.706;2024-02-26T09:20:41;17.40;;;8.18;;
69878;SDS011;57161;43.136;24.706;2024-02-26T09:23:06;15.10;;;10.98;;
69878;SDS011;57161;43.136;24.706;2024-02-26T09:25:32;9.98;;;6.55;;
69878;SDS011;57161;43.136;24.706;2024-02-26T09:27:58;33.15;;;21.38;;
69878;SDS011;57161;43.136;24.706;2024-02-26T09:30:24;20.15;;;13.43;;
69878;SDS011;57161;43.136;24.706;2024-02-26T09:32:50;20.00;;;10.98;;
69878;SDS011;57161;43.136;24.706;2024-02-26T09:35:15;13.63;;;5.85;;
69878;SDS011;57161;43.136;24.706;2024-02-26T09:37:41;16.33;;;7.88;;
69878;SDS011;57161;43.136;24.706;2024-02-26T09:40:08;17.77;;;7.40;;
69878;SDS011;57161;43.136;24.706;2024-02-26T09:42:37;15.13;;;7.70;;
69878;SDS011;57161;43.136;24.706;2024-02-26T09:45:05;31.95;;;18.15;;
69878;SDS011;57161;43.136;24.706;2024-02-26T09:47:34;16.90;;;10.73;;
69878;SDS011;57161;43.136;24.706;2024-02-26T09:50:01;20.83;;;12.52;;
69878;SDS011;57161;43.136;24.706;2024-02-26T09:52:28;21.00;;;10.52;;
69878;SDS011;57161;43.136;24.706;2024-02-26T09:54:58;46.35;;;26.70;;
69878;SDS011;57161;43.136;24.706;2024-02-26T09:57:24;24.52;;;13.82;;
69878;SDS011;57161;43.136;24.706;2024-02-26T09:59:51;14.65;;;7.53;;
69878;SDS011;57161;43.136;24.706;2024-02-26T10:02:19;19.13;;;12.27;;
69878;SDS011;57161;43.136;24.706;2024-02-26T10:04:46;16.92;;;10.38;;
69878;SDS011;57161;43.136;24.706;2024-02-26T10:07:13;10.45;;;6.88;;
69878;SDS011;57161;43.136;24.706;2024-02-26T10:09:39;16.58;;;8.35;;
69878;SDS011;57161;43.136;24.706;2024-02-26T10:12:06;16.75;;;8.68;;
69878;SDS011;57161;43.136;24.706;2024-02-26T10:14:34;12.10;;;8.35;;
69878;SDS011;57161;43.136;24.706;2024-02-26T10:17:00;15.88;;;8.77;;
69878;SDS011;57161;43.136;24.706;2024-02-26T10:19:26;16.40;;;8.77;;
69878;SDS011;57161;43.136;24.706;2024-02-26T10:21:59;10.23;;;7.45;;
69878;SDS011;57161;43.136;24.706;2024-02-26T10:24:26;11.10;;;7.75;;
69878;SDS011;57161;43.136;24.706;2024-02-26T10:26:52;13.25;;;7.90;;
69878;SDS011;57161;43.136;24.706;2024-02-26T10:29:20;13.43;;;7.35;;
69878;SDS011;57161;43.136;24.706;2024-02-26T10:31:46;11.90;;;7.25;;
69878;SDS011;57161;43.136;24.706;2024-02-26T10:34:12;10.80;;;6.45;;
69878;SDS011;57161;43.136;24.706;2024-02-26T10:36:38;10.10;;;5.78;;
69878;SDS011;57161;43.136;24.706;2024-02-26T10:39:06;11.82;;;6.13;;
69878;SDS011;57161;43.136;24.706;2024-02-26T10:41:35;12.73;;;8.27;;
69878;SDS011;57161;43.136;24.706;2024-02-26T10:44:01;15.73;;;8.23;;
69878;SDS011;57161;43.136;24.706;2024-02-26T10:46:27;12.25;;;7.18;;
69878;SDS011;57161;43.136;24.706;2024-02-26T10:48:52;11.85;;;7.80;;
69878;SDS011;57161;43.136;24.706;2024-02-26T10:51:26;10.02;;;5.90;;
69878;SDS011;57161;43.136;24.706;2024-02-26T10:53:54;10.85;;;7.15;;
69878;SDS011;57161;43.136;24.706;2024-02-26T10:56:27;10.95;;;6.57;;
69878;SDS011;57161;43.136;24.706;2024-02-26T10:58:57;12.30;;;6.07;;
69878;SDS011;57161;43.136;24.706;2024-02-26T11:01:23;11.20;;;8.15;;
69878;SDS011;57161;43.136;24.706;2024-02-26T11:03:51;14.13;;;8.82;;
69878;SDS011;57161;43.136;24.706;2024-02-26T11:06:17;59.42;;;40.50;;
69878;SDS011;57161;43.136;24.706;2024-02-26T11:08:49;45.28;;;26.88;;
69878;SDS011;57161;43.136;24.706;2024-02-26T11:11:16;51.90;;;36.20;;
69878;SDS011;57161;43.136;24.706;2024-02-26T11:13:44;56.10;;;34.28;;
69878;SDS011;57161;43.136;24.706;2024-02-26T11:16:15;177.50;;;100.82;;
69878;SDS011;57161;43.136;24.706;2024-02-26T11:18:46;34.97;;;21.50;;
69878;SDS011;57161;43.136;24.706;2024-02-26T11:21:16;81.70;;;32.60;;
69878;SDS011;57161;43.136;24.706;2024-02-26T11:23:52;132.75;;;51.88;;
69878;SDS011;57161;43.136;24.706;2024-02-26T11:26:18;104.07;;;40.45;;
69878;SDS011;57161;43.136;24.706;2024-02-26T11:28:45;101.53;;;39.55;;
69878;SDS011;57161;43.136;24.706;2024-02-26T11:31:11;30.00;;;17.58;;
69878;SDS011;57161;43.136;24.706;2024-02-26T11:33:38;47.47;;;37.58;;
69878;SDS011;57161;43.136;24.706;2024-02-26T11:36:08;21.20;;;10.90;;
69878;SDS011;57161;43.136;24.706;2024-02-26T11:38:35;30.25;;;19.48;;
69878;SDS011;57161;43.136;24.706;2024-02-26T11:41:01;15.52;;;11.13;;
69878;SDS011;57161;43.136;24.706;2024-02-26T11:46:25;11.23;;;8.57;;
69878;SDS011;57161;43.136;24.706;2024-02-26T11:48:51;8.32;;;4.63;;
69878;SDS011;57161;43.136;24.706;2024-02-26T11:51:24;11.38;;;5.15;;
69878;SDS011;57161;43.136;24.706;2024-02-26T11:58:53;5.45;;;3.60;;
69878;SDS011;57161;43.136;24.706;2024-02-26T12:04:04;20.70;;;12.70;;
69878;SDS011;57161;43.136;24.706;2024-02-26T12:06:31;42.58;;;27.35;;
69878;SDS011;57161;43.136;24.706;2024-02-26T12:08:56;61.63;;;37.22;;
69878;SDS011;57161;43.136;24.706;2024-02-26T12:11:22;56.17;;;33.33;;
69878;SDS011;57161;43.136;24.706;2024-02-26T12:13:47;7.15;;;3.90;;
69878;SDS011;57161;43.136;24.706;2024-02-26T12:16:38;6.38;;;4.35;;
69878;SDS011;57161;43.136;24.706;2024-02-26T12:19:07;27.05;;;18.20;;
69878;SDS011;57161;43.136;24.706;2024-02-26T12:21:34;15.35;;;7.32;;
69878;SDS011;57161;43.136;24.706;2024-02-26T12:24:14;44.17;;;29.40;;
69878;SDS011;57161;43.136;24.706;2024-02-26T12:26:43;57.40;;;38.75;;
69878;SDS011;57161;43.136;24.706;2024-02-26T12:29:09;28.55;;;17.83;;
69878;SDS011;57161;43.136;24.706;2024-02-26T12:31:36;13.68;;;7.32;;
69878;SDS011;57161;43.136;24.706;2024-02-26T12:34:02;30.80;;;19.50;;
69878;SDS011;57161;43.136;24.706;2024-02-26T12:36:29;8.25;;;4.82;;
69878;SDS011;57161;43.136;24.706;2024-02-26T12:38:55;18.50;;;11.07;;
69878;SDS011;57161;43.136;24.706;2024-02-26T12:41:21;8.38;;;4.13;;
69878;SDS011;57161;43.136;24.706;2024-02-26T12:43:47;23.17;;;13.82;;
69878;SDS011;57161;43.136;24.706;2024-02-26T12:46:12;8.38;;;5.43;;
69878;SDS011;57161;43.136;24.706;2024-02-26T12:48:42;20.13;;;11.40;;
69878;SDS011;57161;43.136;24.706;2024-02-26T12:51:10;10.70;;;6.28;;
69878;SDS011;57161;43.136;24.706;2024-02-26T12:53:37;30.17;;;19.95;;
69878;SDS011;57161;43.136;24.706;2024-02-26T12:56:03;23.33;;;14.75;;
69878;SDS011;57161;43.136;24.706;2024-02-26T12:58:29;7.55;;;4.68;;
69878;SDS011;57161;43.136;24.706;2024-02-26T13:00:57;17.92;;;11.70;;
69878;SDS011;57161;43.136;24.706;2024-02-26T13:03:23;20.45;;;11.90;;
69878;SDS011;57161;43.136;24.706;2024-02-26T13:05:49;9.75;;;4.93;;
69878;SDS011;57161;43.136;24.706;2024-02-26T13:08:21;7.10;;;4.07;;
69878;SDS011;57161;43.136;24.706;2024-02-26T13:10:47;7.25;;;5.30;;
69878;SDS011;57161;43.136;24.706;2024-02-26T13:13:16;9.77;;;7.00;;
69878;SDS011;57161;43.136;24.706;2024-02-26T13:15:42;7.45;;;3.90;;
69878;SDS011;57161;43.136;24.706;2024-02-26T13:18:09;11.77;;;6.43;;
69878;SDS011;57161;43.136;24.706;2024-02-26T13:20:36;11.63;;;7.55;;
69878;SDS011;57161;43.136;24.706;2024-02-26T13:23:05;9.13;;;5.25;;
69878;SDS011;57161;43.136;24.706;2024-02-26T13:25:40;9.18;;;5.68;;
69878;SDS011;57161;43.136;24.706;2024-02-26T13:28:09;9.60;;;5.55;;
69878;SDS011;57161;43.136;24.706;2024-02-26T13:30:40;10.63;;;5.63;;
69878;SDS011;57161;43.136;24.706;2024-02-26T13:33:12;11.73;;;5.38;;
69878;SDS011;57161;43.136;24.706;2024-02-26T13:35:39;10.85;;;5.25;;
69878;SDS011;57161;43.136;24.706;2024-02-26T13:38:05;15.05;;;5.90;;
69878;SDS011;57161;43.136;24.706;2024-02-26T13:40:35;10.77;;;4.85;;
69878;SDS011;57161;43.136;24.706;2024-02-26T13:43:01;8.27;;;4.70;;
69878;SDS011;57161;43.136;24.706;2024-02-26T13:45:26;17.27;;;4.68;;
69878;SDS011;57161;43.136;24.706;2024-02-26T13:47:52;10.43;;;4.90;;
69878;SDS011;57161;43.136;24.706;2024-02-26T13:50:18;7.75;;;4.82;;
69878;SDS011;57161;43.136;24.706;2024-02-26T13:52:46;15.30;;;8.55;;
69878;SDS011;57161;43.136;24.706;2024-02-26T13:55:12;18.02;;;9.88;;
69878;SDS011;57161;43.136;24.706;2024-02-26T13:57:39;23.02;;;14.73;;
69878;SDS011;57161;43.136;24.706;2024-02-26T14:00:05;14.63;;;9.70;;
69878;SDS011;57161;43.136;24.706;2024-02-26T14:02:34;14.63;;;7.60;;
69878;SDS011;57161;43.136;24.706;2024-02-26T14:05:01;12.70;;;5.70;;
69878;SDS011;57161;43.136;24.706;2024-02-26T14:07:30;28.88;;;9.25;;
69878;SDS011;57161;43.136;24.706;2024-02-26T14:09:58;14.50;;;7.03;;
69878;SDS011;57161;43.136;24.706;2024-02-26T14:12:24;14.23;;;7.90;;
69878;SDS011;57161;43.136;24.706;2024-02-26T14:14:50;13.98;;;6.22;;
69878;SDS011;57161;43.136;24.706;2024-02-26T14:17:18;11.82;;;5.30;;
69878;SDS011;57161;43.136;24.706;2024-02-26T14:19:43;15.85;;;5.15;;
69878;SDS011;57161;43.136;24.706;2024-02-26T14:22:12;16.27;;;4.28;;
69878;SDS011;57161;43.136;24.706;2024-02-26T14:24:37;11.57;;;4.63;;